61CL weather

Johnson Brothers Airport
Calexico, California, United States

Public forecast

Using degrees Fahrenheit for public forecast. Weather courtesy of forecast.io.

Closest aviation weather report (METAR) to Johnson Brothers Airport

Closest report is Imperial County Airport, 9.7 nm (18.0 km) N. Retrieved 2020/02/26 21:53 UTC (43 minutes ago):

KIPL 262153Z AUTO 06007KT 10SM CLR 22/M13 A3030 RMK AO2 SLP261 T02171133

Closest aviation forecast (TAF) to Johnson Brothers Airport

Closest forecast is Imperial County Airport, 9.7 nm (18.0 km) N. Retrieved 2020/02/26 18:22 UTC (4 hours ago):

TAF KIPL 261720Z 2618/2718 02007KT P6SM SKC FM270200 26005KT P6SM FEW250